Time;durP1;ratioP1;P1;durP2;ratioP2;P2;SDS_P1;SDS_P2;PMS_P1;PMS_P2;Temp;Humidity;BMP_temperature;BMP_pressure;BME280_temperature;BME280_humidity;BME280_pressure;Samples;Min_cycle;Max_cycle;Signal;HPM_P1;HPM_P2
2021/07/06 00:02:17;;;;;;;8.63;5.70;;;24.90;70.60;;;;;;5076860;28;20065;-46
2021/07/06 00:04:42;;;;;;;6.05;5.20;;;24.90;70.90;;;;;;5076974;28;20460;-45
2021/07/06 00:07:08;;;;;;;9.27;5.32;;;24.80;70.90;;;;;;5076197;28;20016;-44
2021/07/06 00:09:34;;;;;;;7.30;5.63;;;24.80;71.00;;;;;;5076630;28;20039;-41
2021/07/06 00:12:00;;;;;;;9.05;5.95;;;24.80;70.90;;;;;;5076557;28;20017;-43
2021/07/06 00:14:26;;;;;;;6.88;5.40;;;24.80;71.10;;;;;;5076588;28;20036;-43
2021/07/06 00:16:51;;;;;;;8.50;5.50;;;24.80;71.20;;;;;;5076510;28;20118;-47
2021/07/06 00:19:17;;;;;;;9.57;5.75;;;24.80;71.40;;;;;;5076253;28;20064;-46
2021/07/06 00:21:43;;;;;;;6.85;6.10;;;24.70;71.60;;;;;;5076196;28;20063;-42
2021/07/06 00:24:09;;;;;;;8.98;5.93;;;24.70;71.70;;;;;;5076594;28;20099;-42
2021/07/06 00:26:34;;;;;;;6.70;5.50;;;24.70;71.80;;;;;;5076284;28;20035;-43
2021/07/06 00:29:00;;;;;;;7.45;5.53;;;24.70;72.30;;;;;;5075916;28;20038;-42
2021/07/06 00:31:26;;;;;;;13.82;6.40;;;24.70;71.70;;;;;;5076469;28;20070;-45
2021/07/06 00:33:52;;;;;;;9.88;6.35;;;24.70;72.20;;;;;;5075731;28;20050;-42
2021/07/06 00:36:18;;;;;;;8.52;6.05;;;24.70;71.80;;;;;;5076055;28;20490;-46
2021/07/06 00:38:44;;;;;;;10.02;6.30;;;24.70;71.80;;;;;;5075674;28;20032;-45
2021/07/06 00:41:10;;;;;;;8.18;6.70;;;24.70;72.00;;;;;;5076010;28;20055;-44
2021/07/06 00:43:37;;;;;;;8.32;6.28;;;24.70;71.90;;;;;;5076116;28;20359;-44
2021/07/06 00:46:04;;;;;;;8.85;6.18;;;24.70;72.00;;;;;;5075843;28;20039;-45
2021/07/06 00:48:30;;;;;;;11.18;6.30;;;24.70;72.00;;;;;;5075796;28;20104;-46
2021/07/06 00:50:56;;;;;;;7.43;6.43;;;24.70;72.00;;;;;;5076000;28;20370;-45
2021/07/06 00:53:23;;;;;;;8.80;6.50;;;24.70;72.00;;;;;;5075876;28;20021;-42
2021/07/06 00:55:51;;;;;;;8.13;6.28;;;24.70;71.80;;;;;;5076152;28;20048;-47
2021/07/06 00:58:17;;;;;;;7.88;6.13;;;24.60;71.60;;;;;;5075486;28;20035;-45
2021/07/06 01:00:43;;;;;;;8.65;6.07;;;24.70;71.90;;;;;;5076201;28;20028;-48
2021/07/06 01:03:10;;;;;;;8.40;6.45;;;24.60;71.80;;;;;;5075406;28;20016;-46
2021/07/06 01:05:36;;;;;;;7.90;6.07;;;24.60;71.90;;;;;;5076050;28;20032;-44
2021/07/06 01:08:03;;;;;;;7.50;6.70;;;24.60;71.90;;;;;;5075518;28;20024;-43
2021/07/06 01:10:29;;;;;;;9.57;6.78;;;24.60;72.00;;;;;;5075494;28;20036;-45
2021/07/06 01:12:55;;;;;;;9.07;6.65;;;24.60;72.00;;;;;;5075696;28;20021;-45
2021/07/06 01:15:29;;;;;;;10.15;6.80;;;24.60;72.10;;;;;;5075960;28;20043;-42
2021/07/06 01:18:05;;;;;;;8.23;7.40;;;24.60;72.10;;;;;;5075265;28;20020;-45
2021/07/06 01:20:31;;;;;;;10.07;6.78;;;24.60;72.10;;;;;;5076100;28;20032;-43
2021/07/06 01:22:58;;;;;;;9.85;6.70;;;24.60;72.30;;;;;;5075479;28;20035;-45
2021/07/06 01:25:24;;;;;;;10.32;7.22;;;24.60;72.50;;;;;;5075943;28;20333;-44
2021/07/06 01:27:49;;;;;;;8.02;7.03;;;24.50;72.30;;;;;;5075388;28;20400;-45
2021/07/06 01:30:17;;;;;;;7.65;6.43;;;24.50;72.20;;;;;;5075893;28;20305;-43
2021/07/06 01:32:45;;;;;;;9.00;7.10;;;24.50;72.30;;;;;;5075153;28;20031;-43
2021/07/06 01:35:13;;;;;;;8.32;6.97;;;24.50;72.60;;;;;;5075691;28;20035;-47
2021/07/06 01:37:49;;;;;;;7.80;6.57;;;24.50;72.50;;;;;;5075258;28;20031;-44
2021/07/06 01:40:17;;;;;;;11.32;6.85;;;24.50;72.70;;;;;;5075338;28;20061;-47
2021/07/06 01:42:43;;;;;;;11.50;6.80;;;24.50;72.70;;;;;;5075016;28;20035;-46
2021/07/06 01:45:14;;;;;;;7.75;6.60;;;24.50;72.80;;;;;;5075804;28;20371;-45
2021/07/06 01:47:51;;;;;;;9.38;6.47;;;24.50;72.90;;;;;;5075163;28;20028;-45
2021/07/06 01:50:38;;;;;;;9.88;6.70;;;24.50;72.80;;;;;;5075715;28;20024;-47
2021/07/06 01:53:10;;;;;;;9.52;6.68;;;24.50;72.70;;;;;;5076084;28;20059;-48
2021/07/06 01:55:38;;;;;;;12.45;7.38;;;24.50;72.80;;;;;;5079527;28;20390;-46
2021/07/06 01:58:06;;;;;;;10.30;6.90;;;24.50;72.90;;;;;;5079023;28;20017;-44
2021/07/06 02:00:35;;;;;;;9.45;7.30;;;24.50;72.90;;;;;;5079539;28;20321;-43
2021/07/06 02:03:03;;;;;;;11.68;7.03;;;24.50;72.70;;;;;;5078929;28;20108;-47
2021/07/06 02:05:47;;;;;;;13.55;7.05;;;24.50;72.80;;;;;;5079415;28;20128;-47
2021/07/06 02:08:19;;;;;;;7.35;6.35;;;24.50;72.80;;;;;;5078944;28;20347;-43
2021/07/06 02:10:46;;;;;;;8.15;6.13;;;24.40;72.80;;;;;;5079295;28;20316;-47
2021/07/06 02:13:15;;;;;;;9.52;7.05;;;24.40;72.80;;;;;;5078761;28;20315;-45
2021/07/06 02:15:42;;;;;;;9.50;6.28;;;24.50;72.80;;;;;;5079136;28;20062;-43
2021/07/06 02:18:20;;;;;;;13.82;6.90;;;24.50;72.80;;;;;;5078732;28;20074;-47
2021/07/06 02:20:50;;;;;;;8.07;6.47;;;24.50;72.80;;;;;;5078592;28;20032;-43
2021/07/06 02:23:16;;;;;;;;;;;24.40;72.70;;;;;;5079216;28;20313;-41
2021/07/06 02:25:43;;;;;;;8.55;6.70;;;24.40;72.40;;;;;;5078837;28;19912;-45
2021/07/06 02:28:08;;;;;;;8.82;6.65;;;24.40;72.60;;;;;;5078419;28;20025;-42
2021/07/06 02:30:34;;;;;;;8.45;7.03;;;24.40;72.50;;;;;;5079050;28;20289;-46
2021/07/06 02:33:00;;;;;;;8.80;6.80;;;24.40;72.70;;;;;;5078176;28;20273;-45
2021/07/06 02:35:28;;;;;;;9.35;6.93;;;24.40;72.90;;;;;;5078585;28;20048;-46
2021/07/06 02:37:56;;;;;;;10.65;7.53;;;24.40;72.90;;;;;;5078254;28;20032;-46
2021/07/06 02:40:22;;;;;;;11.77;6.63;;;24.40;73.10;;;;;;5078170;28;20409;-43
2021/07/06 02:42:48;;;;;;;8.48;6.85;;;24.40;73.00;;;;;;5078446;28;20099;-45
2021/07/06 02:45:16;;;;;;;15.23;7.47;;;24.40;73.00;;;;;;5077369;28;20035;-45
2021/07/06 02:47:43;;;;;;;14.80;7.32;;;24.40;73.10;;;;;;5077998;28;20478;-49
2021/07/06 02:50:10;;;;;;;18.45;7.10;;;24.40;73.10;;;;;;5078090;28;20033;-47
2021/07/06 02:52:36;;;;;;;14.30;7.53;;;24.40;73.70;;;;;;5078462;28;20103;-45
2021/07/06 02:55:05;;;;;;;11.23;7.55;;;24.40;73.30;;;;;;5078290;28;20105;-46
2021/07/06 02:57:34;;;;;;;10.95;7.57;;;24.40;73.40;;;;;;5077919;28;20036;-44
2021/07/06 03:00:11;;;;;;;7.72;6.90;;;24.40;73.30;;;;;;5078368;28;20115;-43
2021/07/06 03:02:38;;;;;;;9.30;7.15;;;24.40;73.30;;;;;;5077851;28;20024;-42
2021/07/06 03:05:06;;;;;;;12.88;6.97;;;24.40;73.30;;;;;;5076855;28;20085;-46
2021/07/06 03:07:32;;;;;;;14.10;7.60;;;24.40;73.20;;;;;;5077399;28;20039;-46
2021/07/06 03:10:00;;;;;;;8.98;6.72;;;24.40;73.30;;;;;;5078025;28;20029;-43
2021/07/06 03:12:26;;;;;;;9.25;7.15;;;24.40;73.40;;;;;;5077471;28;20068;-42
2021/07/06 03:14:51;;;;;;;10.63;6.72;;;24.40;73.30;;;;;;5077487;28;20075;-42
2021/07/06 03:17:17;;;;;;;9.65;7.78;;;24.40;73.20;;;;;;5077666;28;20024;-41
2021/07/06 03:19:43;;;;;;;10.60;7.70;;;24.40;73.20;;;;;;5078125;28;20044;-42
2021/07/06 03:22:08;;;;;;;12.02;7.45;;;24.40;73.20;;;;;;5077413;28;20031;-42
2021/07/06 03:24:34;;;;;;;11.77;7.07;;;24.40;73.20;;;;;;5077759;28;20044;-43
2021/07/06 03:27:00;;;;;;;12.05;7.38;;;24.40;73.20;;;;;;5077037;28;20040;-46
2021/07/06 03:29:25;;;;;;;9.48;7.88;;;24.40;73.10;;;;;;5077582;28;20055;-42
2021/07/06 03:31:51;;;;;;;10.60;7.63;;;24.40;73.30;;;;;;5076974;28;20029;-47
2021/07/06 03:34:17;;;;;;;14.32;8.05;;;24.40;73.20;;;;;;5077233;28;20033;-43
2021/07/06 03:36:42;;;;;;;13.32;8.65;;;24.40;73.10;;;;;;5077475;28;20067;-42
2021/07/06 03:39:08;;;;;;;12.98;8.32;;;24.40;73.30;;;;;;5076594;28;20463;-43
2021/07/06 03:41:34;;;;;;;10.02;7.80;;;24.40;73.00;;;;;;5077066;28;20035;-47
2021/07/06 03:43:59;;;;;;;9.57;7.47;;;24.40;73.00;;;;;;5076833;28;20085;-42
2021/07/06 03:46:26;;;;;;;9.40;7.38;;;24.40;73.40;;;;;;5077268;28;20024;-45
2021/07/06 03:48:52;;;;;;;9.95;7.35;;;24.40;73.40;;;;;;5076679;28;20051;-45
2021/07/06 03:51:17;;;;;;;8.15;6.85;;;24.40;73.70;;;;;;5077132;28;20103;-47
2021/07/06 03:53:43;;;;;;;12.38;8.10;;;24.40;73.60;;;;;;5076373;28;20036;-46
2021/07/06 03:56:09;;;;;;;13.27;7.30;;;24.40;73.60;;;;;;5076817;28;20290;-45
2021/07/06 03:58:34;;;;;;;11.57;7.20;;;24.40;73.70;;;;;;5076105;28;20056;-44
2021/07/06 04:01:02;;;;;;;11.10;8.07;;;24.40;73.70;;;;;;5076945;28;20047;-44
2021/07/06 04:03:27;;;;;;;10.18;7.78;;;24.40;73.70;;;;;;5076366;28;20033;-43
2021/07/06 04:05:53;;;;;;;9.77;7.47;;;24.40;73.90;;;;;;5076436;28;20408;-44
2021/07/06 04:08:19;;;;;;;14.43;7.93;;;24.40;74.10;;;;;;5076110;28;20021;-42
2021/07/06 04:10:44;;;;;;;11.20;8.18;;;24.40;74.30;;;;;;5076462;28;20477;-46
2021/07/06 04:13:10;;;;;;;10.80;7.32;;;24.40;74.30;;;;;;5076286;28;20017;-41
2021/07/06 04:15:38;;;;;;;11.52;8.18;;;24.40;74.30;;;;;;5076237;28;20033;-43
2021/07/06 04:18:04;;;;;;;17.48;8.73;;;24.40;74.10;;;;;;5076049;28;20029;-41
2021/07/06 04:20:30;;;;;;;14.40;8.48;;;24.50;74.20;;;;;;5076620;28;20119;-46
2021/07/06 04:22:55;;;;;;;9.75;7.85;;;24.50;74.20;;;;;;5075942;28;20035;-43
2021/07/06 04:25:21;;;;;;;13.85;8.63;;;24.60;74.00;;;;;;5076719;28;20033;-46
2021/07/06 04:27:47;;;;;;;12.00;8.90;;;24.60;73.90;;;;;;5075598;28;20032;-48
2021/07/06 04:30:13;;;;;;;12.10;7.70;;;24.60;73.80;;;;;;5075199;28;20428;-42
2021/07/06 04:32:39;;;;;;;9.98;7.40;;;24.60;73.50;;;;;;5075813;28;20099;-42
2021/07/06 04:35:06;;;;;;;9.30;7.15;;;24.60;73.60;;;;;;5076243;28;20119;-46
2021/07/06 04:37:32;;;;;;;16.73;8.60;;;24.60;73.60;;;;;;5075799;28;20074;-45
2021/07/06 04:39:59;;;;;;;11.63;8.90;;;24.60;73.80;;;;;;5075537;28;20452;-42
2021/07/06 04:42:24;;;;;;;12.38;8.60;;;24.70;73.90;;;;;;5075571;28;20029;-46
2021/07/06 04:44:50;;;;;;;10.25;8.55;;;24.70;73.50;;;;;;5076194;28;20033;-42
2021/07/06 04:47:16;;;;;;;11.15;7.70;;;24.80;73.70;;;;;;5075832;28;20024;-44
2021/07/06 04:49:41;;;;;;;9.65;7.60;;;24.80;73.60;;;;;;5075708;28;20029;-49
2021/07/06 04:52:07;;;;;;;14.02;7.88;;;24.80;73.50;;;;;;5075647;28;20332;-48
2021/07/06 04:54:33;;;;;;;12.43;7.97;;;24.80;73.30;;;;;;5075961;28;20041;-48
2021/07/06 04:56:59;;;;;;;9.20;8.02;;;24.90;73.30;;;;;;5075434;28;20251;-48
2021/07/06 04:59:25;;;;;;;10.55;8.60;;;24.90;73.20;;;;;;5075625;28;20044;-43
2021/07/06 05:01:50;;;;;;;13.57;8.88;;;25.00;73.10;;;;;;5075283;28;20024;-49
2021/07/06 05:04:17;;;;;;;12.23;8.68;;;25.00;72.80;;;;;;5075330;28;20037;-47
2021/07/06 05:06:42;;;;;;;9.80;8.43;;;25.00;72.80;;;;;;5075843;28;20262;-42
2021/07/06 05:09:08;;;;;;;14.30;8.10;;;25.10;72.90;;;;;;5075288;28;20493;-47
2021/07/06 05:11:34;;;;;;;11.48;7.80;;;25.20;73.00;;;;;;5075252;28;20051;-49
2021/07/06 05:14:01;;;;;;;13.10;8.95;;;25.20;72.90;;;;;;5074890;28;20044;-49
2021/07/06 05:16:27;;;;;;;10.02;8.02;;;25.30;72.60;;;;;;5075635;28;20032;-47
2021/07/06 05:18:52;;;;;;;15.68;8.95;;;25.30;72.10;;;;;;5073749;28;20090;-47
2021/07/06 05:21:18;;;;;;;10.25;7.78;;;25.40;71.80;;;;;;5067515;28;20100;-47
2021/07/06 05:23:44;;;;;;;11.25;7.85;;;25.40;71.60;;;;;;5054497;28;20025;-42
2021/07/06 05:26:10;;;;;;;10.82;8.30;;;25.50;71.70;;;;;;5055156;28;20040;-48
2021/07/06 05:28:35;;;;;;;11.68;8.57;;;25.50;71.70;;;;;;5057037;28;20112;-42
2021/07/06 05:31:03;;;;;;;10.68;9.50;;;25.60;71.70;;;;;;5069301;28;20071;-43
2021/07/06 05:33:29;;;;;;;15.45;9.73;;;25.60;72.20;;;;;;5079137;28;20027;-42
2021/07/06 05:35:55;;;;;;;15.77;10.20;;;25.60;71.30;;;;;;5079107;28;20032;-42
2021/07/06 05:38:20;;;;;;;13.18;9.98;;;25.60;71.10;;;;;;5079001;28;20042;-47
2021/07/06 05:40:53;;;;;;;10.90;9.18;;;25.70;71.10;;;;;;5060246;28;20049;-47
2021/07/06 05:43:19;;;;;;;10.23;9.18;;;25.70;71.00;;;;;;5058823;28;20096;-44
2021/07/06 05:45:45;;;;;;;17.25;11.10;;;25.70;70.90;;;;;;5059780;28;20332;-41
2021/07/06 05:48:10;;;;;;;14.70;10.75;;;25.80;70.90;;;;;;5058361;28;20238;-43
2021/07/06 05:50:36;;;;;;;15.38;10.10;;;25.80;71.00;;;;;;5056823;28;20410;-46
2021/07/06 05:53:02;;;;;;;15.90;10.77;;;25.90;71.10;;;;;;5056958;28;20017;-47
2021/07/06 05:55:28;;;;;;;11.30;10.10;;;25.90;71.00;;;;;;5057164;28;20032;-46
2021/07/06 05:57:53;;;;;;;11.65;9.25;;;26.00;71.00;;;;;;5056157;28;20040;-46
2021/07/06 06:00:19;;;;;;;14.10;10.10;;;26.00;71.00;;;;;;5057156;28;20110;-41
2021/07/06 06:02:46;;;;;;;13.50;11.80;;;26.10;70.70;;;;;;5057196;28;20025;-45
2021/07/06 06:05:12;;;;;;;12.90;10.02;;;26.10;70.40;;;;;;5058753;28;20036;-46
2021/07/06 06:07:39;;;;;;;13.75;10.40;;;26.20;70.30;;;;;;5058047;28;20029;-41
2021/07/06 06:10:07;;;;;;;16.30;10.38;;;26.20;70.30;;;;;;5059129;28;20049;-41
2021/07/06 06:12:32;;;;;;;13.52;10.23;;;26.20;70.50;;;;;;5058494;28;20352;-43
2021/07/06 06:14:58;;;;;;;14.27;11.65;;;26.30;70.30;;;;;;5058743;28;20113;-47
2021/07/06 06:17:23;;;;;;;16.88;10.45;;;26.30;70.00;;;;;;5057956;28;20124;-41
2021/07/06 06:19:49;;;;;;;13.57;10.80;;;26.40;70.00;;;;;;5058378;28;20448;-48
2021/07/06 06:22:15;;;;;;;13.50;10.38;;;26.40;69.80;;;;;;5057875;28;20028;-43
2021/07/06 06:24:40;;;;;;;18.98;11.30;;;26.50;69.70;;;;;;5058038;28;20025;-43
2021/07/06 06:27:06;;;;;;;14.20;10.68;;;26.50;69.50;;;;;;5069332;28;20128;-42
2021/07/06 06:29:32;;;;;;;14.05;10.98;;;26.50;69.20;;;;;;5078321;28;20028;-42
2021/07/06 06:31:57;;;;;;;15.38;11.60;;;26.60;68.90;;;;;;5078358;28;20070;-46
2021/07/06 06:34:23;;;;;;;16.35;11.23;;;26.60;69.20;;;;;;5077920;28;20290;-44
2021/07/06 06:36:49;;;;;;;16.45;13.10;;;26.60;69.00;;;;;;5059042;28;20036;-41
2021/07/06 06:39:14;;;;;;;13.88;11.15;;;26.60;69.00;;;;;;5057582;28;20053;-41
2021/07/06 06:41:40;;;;;;;13.35;11.20;;;26.70;68.80;;;;;;5058052;28;20048;-49
2021/07/06 06:44:06;;;;;;;15.25;9.82;;;26.70;68.90;;;;;;5057615;28;20352;-47
2021/07/06 06:46:31;;;;;;;16.05;11.77;;;26.80;68.90;;;;;;5057796;28;20025;-46
2021/07/06 06:49:00;;;;;;;12.88;10.10;;;26.80;68.80;;;;;;5057132;28;20043;-46
2021/07/06 06:51:27;;;;;;;12.68;10.48;;;26.80;68.70;;;;;;5057638;28;20021;-46
2021/07/06 06:53:52;;;;;;;13.95;10.20;;;26.90;68.70;;;;;;5056711;28;20137;-48
2021/07/06 06:56:18;;;;;;;14.13;10.57;;;26.90;68.10;;;;;;5057708;28;20075;-41
2021/07/06 06:58:44;;;;;;;17.38;10.35;;;26.90;68.00;;;;;;5057239;28;20682;-41
2021/07/06 07:01:10;;;;;;;14.85;11.50;;;26.90;68.10;;;;;;5076731;28;20400;-46
2021/07/06 07:03:35;;;;;;;12.27;10.05;;;26.90;68.10;;;;;;5060283;28;20060;-42
2021/07/06 07:06:01;;;;;;;13.40;10.10;;;26.90;68.10;;;;;;5057476;28;20033;-46
2021/07/06 07:08:27;;;;;;;12.10;10.30;;;26.90;68.10;;;;;;5056466;28;20083;-43
2021/07/06 07:10:53;;;;;;;12.57;10.38;;;27.00;68.10;;;;;;5056904;28;20033;-42
2021/07/06 07:13:18;;;;;;;11.43;10.23;;;27.00;67.90;;;;;;5061729;28;20027;-42
2021/07/06 07:15:44;;;;;;;23.73;10.80;;;27.00;68.10;;;;;;5076158;28;20467;-43
2021/07/06 07:18:10;;;;;;;12.88;9.70;;;27.10;68.00;;;;;;5074865;28;20029;-47
2021/07/06 07:20:36;;;;;;;15.77;9.60;;;27.10;67.80;;;;;;5077160;28;20032;-46
2021/07/06 07:23:02;;;;;;;13.38;9.82;;;27.20;67.60;;;;;;5076995;28;20037;-44
2021/07/06 07:25:29;;;;;;;11.23;8.93;;;27.20;67.40;;;;;;5077095;28;20405;-41
2021/07/06 07:27:55;;;;;;;14.50;11.27;;;27.30;67.50;;;;;;5076367;28;20040;-45
2021/07/06 07:30:22;;;;;;;15.23;9.93;;;27.30;67.20;;;;;;5077029;28;20033;-46
2021/07/06 07:32:49;;;;;;;14.57;10.68;;;27.40;67.00;;;;;;5076652;28;20036;-47
2021/07/06 07:35:15;;;;;;;14.38;10.40;;;27.40;66.90;;;;;;5076648;28;20111;-41
2021/07/06 07:37:41;;;;;;;11.45;9.30;;;27.50;67.30;;;;;;5075207;28;20032;-41
2021/07/06 07:40:08;;;;;;;13.10;9.00;;;27.50;67.40;;;;;;5076254;28;20048;-42
2021/07/06 07:42:33;;;;;;;12.30;10.68;;;27.60;67.20;;;;;;5076248;28;20033;-41
2021/07/06 07:44:59;;;;;;;12.50;8.38;;;27.60;67.00;;;;;;5076390;28;20037;-42
2021/07/06 07:47:25;;;;;;;11.38;9.98;;;27.70;67.20;;;;;;5076115;28;20048;-43
2021/07/06 07:49:51;;;;;;;15.48;9.52;;;27.80;66.60;;;;;;5076071;28;20036;-46
2021/07/06 07:52:17;;;;;;;10.30;8.43;;;27.90;66.70;;;;;;5074383;28;20652;-41
2021/07/06 07:54:42;;;;;;;11.95;8.60;;;27.90;66.60;;;;;;5076147;28;20036;-41
2021/07/06 07:57:11;;;;;;;12.05;8.93;;;27.90;66.10;;;;;;5074870;28;20028;-41
2021/07/06 07:59:38;;;;;;;10.50;8.60;;;27.90;66.30;;;;;;5076267;28;20032;-45
2021/07/06 08:02:04;;;;;;;12.27;8.30;;;28.00;65.90;;;;;;5076315;28;20261;-50
2021/07/06 08:04:29;;;;;;;8.57;7.15;;;28.00;65.90;;;;;;5076333;28;20467;-47
2021/07/06 08:06:55;;;;;;;9.85;7.53;;;28.00;66.10;;;;;;5076179;28;20112;-42
2021/07/06 08:09:21;;;;;;;11.05;8.05;;;28.00;65.70;;;;;;5075682;28;20032;-46
2021/07/06 08:11:47;;;;;;;12.77;8.13;;;28.00;65.50;;;;;;5074792;28;20380;-46
2021/07/06 08:14:12;;;;;;;9.63;7.50;;;28.00;65.40;;;;;;5075901;28;20112;-43
2021/07/06 08:16:38;;;;;;;9.90;7.43;;;28.00;65.50;;;;;;5076365;28;20320;-42
2021/07/06 08:19:04;;;;;;;8.80;7.30;;;28.00;65.80;;;;;;5075515;28;20036;-41
2021/07/06 08:21:30;;;;;;;7.28;6.57;;;28.00;65.90;;;;;;5075921;28;20035;-43
2021/07/06 08:23:59;;;;;;;11.75;7.45;;;28.00;66.40;;;;;;5075275;28;20041;-46
2021/07/06 08:26:25;;;;;;;7.93;6.82;;;28.00;66.00;;;;;;5076052;28;20056;-43
2021/07/06 08:28:53;;;;;;;8.63;6.70;;;28.00;65.90;;;;;;5075526;28;20029;-42
2021/07/06 08:31:18;;;;;;;9.73;6.85;;;28.00;65.90;;;;;;5075273;28;20435;-46
2021/07/06 08:33:44;;;;;;;8.00;6.70;;;28.00;65.80;;;;;;5073266;28;20037;-47
2021/07/06 08:36:09;;;;;;;8.98;6.40;;;28.00;65.80;;;;;;5074451;28;20032;-42
2021/07/06 08:38:38;;;;;;;13.13;6.88;;;28.00;65.20;;;;;;5074876;28;20059;-46
2021/07/06 08:41:05;;;;;;;8.70;5.90;;;28.00;64.90;;;;;;5075657;28;20048;-43
2021/07/06 08:43:30;;;;;;;9.98;6.15;;;28.00;64.50;;;;;;5074709;28;20420;-48
2021/07/06 08:45:58;;;;;;;10.30;6.35;;;28.10;64.80;;;;;;5075352;28;20135;-46
2021/07/06 08:48:25;;;;;;;8.50;5.78;;;28.10;64.60;;;;;;5074916;28;20317;-46
2021/07/06 08:50:52;;;;;;;6.13;5.30;;;28.10;64.60;;;;;;5076182;28;20356;-47
2021/07/06 08:53:17;;;;;;;15.35;8.05;;;28.20;63.90;;;;;;5074840;28;20071;-42
2021/07/06 08:55:43;;;;;;;9.85;7.65;;;28.20;63.30;;;;;;5075570;28;20028;-42
2021/07/06 08:58:09;;;;;;;9.93;6.53;;;28.20;63.20;;;;;;5074758;28;20027;-43
2021/07/06 09:00:35;;;;;;;9.63;6.63;;;28.30;63.80;;;;;;5075543;28;20039;-42
2021/07/06 09:03:04;;;;;;;10.00;6.47;;;28.30;63.90;;;;;;5074990;28;20055;-42
2021/07/06 09:05:31;;;;;;;8.52;5.70;;;28.40;63.20;;;;;;5074325;28;20110;-42
2021/07/06 09:07:57;;;;;;;7.13;5.38;;;28.40;63.40;;;;;;5075183;28;20028;-43
2021/07/06 09:10:33;;;;;;;9.13;5.72;;;28.40;62.90;;;;;;5075296;28;20028;-43
2021/07/06 09:12:59;;;;;;;13.80;5.65;;;28.50;62.60;;;;;;5074948;28;20074;-44
2021/07/06 09:15:30;;;;;;;8.63;6.07;;;28.60;62.60;;;;;;5071132;28;20025;-44
2021/07/06 09:18:11;;;;;;;10.02;6.65;;;28.60;62.40;;;;;;5057223;28;20037;-41
2021/07/06 09:20:38;;;;;;;8.25;5.65;;;28.60;62.10;;;;;;5055184;28;20082;-41
2021/07/06 09:23:39;;;;;;;8.15;5.40;;;28.70;61.90;;;;;;5054513;28;20033;-44
2021/07/06 09:26:25;;;;;;;;;;;28.80;61.60;;;;;;5034076;28;20045;-47
2021/07/06 09:28:53;;;;;;;7.85;6.40;;;28.80;62.20;;;;;;5053885;28;19916;-43
2021/07/06 09:31:21;;;;;;;9.93;5.15;;;28.80;62.20;;;;;;5054584;28;20036;-47
2021/07/06 09:34:00;;;;;;;11.95;5.25;;;28.90;61.80;;;;;;5054265;28;20041;-46
2021/07/06 09:36:35;;;;;;;7.80;5.20;;;28.90;61.60;;;;;;5054957;28;20025;-46
2021/07/06 09:39:11;;;;;;;7.88;4.75;;;29.00;61.40;;;;;;5054222;28;20041;-43
2021/07/06 09:41:41;;;;;;;7.10;5.40;;;29.00;61.60;;;;;;5054946;28;20333;-42
2021/07/06 09:44:19;;;;;;;6.85;4.72;;;29.00;61.30;;;;;;5054320;28;20029;-42
2021/07/06 09:46:55;;;;;;;8.40;5.47;;;29.00;60.80;;;;;;5055152;28;20075;-47
2021/07/06 09:49:24;;;;;;;8.45;4.90;;;29.10;61.40;;;;;;5054448;28;20033;-46
2021/07/06 09:51:52;;;;;;;7.07;5.10;;;29.00;61.60;;;;;;5054396;28;20053;-48
2021/07/06 09:54:30;;;;;;;7.50;5.50;;;29.10;62.00;;;;;;5054205;28;20037;-41
2021/07/06 09:57:30;;;;;;;7.47;5.15;;;29.10;61.50;;;;;;5054935;28;20307;-41
2021/07/06 09:59:56;;;;;;;;;;;29.10;61.30;;;;;;5055188;28;20057;-46
2021/07/06 10:02:22;;;;;;;6.88;4.70;;;29.20;61.70;;;;;;5054513;28;20301;-41
2021/07/06 10:04:56;;;;;;;6.22;4.78;;;29.10;61.80;;;;;;5054595;28;20025;-48
2021/07/06 10:07:23;;;;;;;8.20;5.00;;;29.10;62.30;;;;;;5054396;28;20402;-52
2021/07/06 10:09:50;;;;;;;6.97;4.60;;;29.20;62.50;;;;;;5054809;28;20203;-48
2021/07/06 10:12:16;;;;;;;9.18;4.88;;;29.30;62.70;;;;;;5054502;28;20029;-46
2021/07/06 10:14:43;;;;;;;6.10;4.50;;;29.40;62.60;;;;;;5056423;28;20036;-47
2021/07/06 10:17:10;;;;;;;5.82;4.40;;;29.50;61.40;;;;;;5058002;28;20444;-46
2021/07/06 10:19:38;;;;;;;6.68;3.80;;;29.60;61.00;;;;;;5058028;28;20037;-42
2021/07/06 10:22:06;;;;;;;8.07;4.03;;;29.70;60.40;;;;;;5058233;28;20033;-41
2021/07/06 10:24:39;;;;;;;6.72;3.70;;;29.80;59.80;;;;;;5057963;28;20044;-48
2021/07/06 10:27:08;;;;;;;9.32;4.47;;;29.90;59.20;;;;;;5057762;28;20033;-44
2021/07/06 10:29:35;;;;;;;4.80;3.30;;;30.00;58.70;;;;;;5057921;28;20021;-42
2021/07/06 10:32:02;;;;;;;5.70;3.60;;;30.10;59.00;;;;;;5058060;28;20107;-44
2021/07/06 10:34:29;;;;;;;6.45;4.05;;;30.20;58.60;;;;;;5058175;28;20112;-50
2021/07/06 10:36:58;;;;;;;7.07;4.60;;;30.30;57.80;;;;;;5058099;28;20519;-47
2021/07/06 10:39:47;;;;;;;7.47;3.55;;;30.40;57.30;;;;;;5057374;28;20053;-43
2021/07/06 10:42:13;;;;;;;4.53;3.50;;;30.50;56.80;;;;;;5057552;28;20036;-47
2021/07/06 10:44:41;;;;;;;10.93;4.90;;;30.50;56.80;;;;;;5058019;28;20421;-43
2021/07/06 10:47:34;;;;;;;10.75;3.80;;;30.60;56.80;;;;;;5057254;28;20414;-42
2021/07/06 10:50:31;;;;;;;5.82;3.85;;;30.70;56.40;;;;;;5057943;28;20043;-41
2021/07/06 10:53:16;;;;;;;4.10;3.45;;;30.80;55.70;;;;;;5057455;28;20022;-45
2021/07/06 10:55:43;;;;;;;4.20;3.15;;;30.90;55.30;;;;;;5057468;28;20071;-46
2021/07/06 10:58:09;;;;;;;4.53;3.47;;;31.00;55.00;;;;;;5057280;28;20029;-48
2021/07/06 11:00:43;;;;;;;3.38;2.88;;;31.00;54.90;;;;;;5057364;28;20298;-42
2021/07/06 11:03:16;;;;;;;7.05;3.53;;;31.10;55.00;;;;;;5057326;28;20025;-42
2021/07/06 11:05:43;;;;;;;6.28;3.50;;;31.20;55.30;;;;;;5057514;28;20032;-43
2021/07/06 11:08:41;;;;;;;5.32;3.40;;;31.30;55.50;;;;;;5057422;28;20025;-42
2021/07/06 11:11:08;;;;;;;7.30;3.50;;;31.40;54.90;;;;;;5057574;28;20033;-41
2021/07/06 11:13:34;;;;;;;6.72;4.75;;;31.50;54.90;;;;;;5056750;28;20445;-47
2021/07/06 11:16:02;;;;;;;7.55;3.90;;;31.60;53.70;;;;;;5056971;28;20036;-46
2021/07/06 11:18:36;;;;;;;13.25;5.30;;;31.70;53.30;;;;;;5056945;28;20051;-49
2021/07/06 11:21:02;;;;;;;5.43;3.22;;;31.80;52.60;;;;;;5057142;28;20471;-48
2021/07/06 11:23:33;;;;;;;6.43;3.42;;;31.90;52.80;;;;;;5056781;28;20036;-47
2021/07/06 11:26:06;;;;;;;6.20;4.00;;;32.10;53.10;;;;;;5056018;28;20108;-52
2021/07/06 11:28:52;;;;;;;5.95;3.67;;;32.20;53.60;;;;;;5056800;28;20322;-46
2021/07/06 11:31:20;;;;;;;7.75;3.60;;;32.30;53.30;;;;;;5057310;28;20060;-44
2021/07/06 11:33:46;;;;;;;5.32;4.10;;;32.40;52.40;;;;;;5055932;28;20021;-42
2021/07/06 11:36:23;;;;;;;4.85;3.28;;;32.40;52.40;;;;;;5055982;28;20067;-41
2021/07/06 11:38:50;;;;;;;6.13;3.25;;;32.40;51.90;;;;;;5056698;28;20413;-46
2021/07/06 11:41:19;;;;;;;5.30;3.38;;;32.40;51.60;;;;;;5056629;28;20044;-47
2021/07/06 11:43:45;;;;;;;5.22;3.65;;;32.50;51.60;;;;;;5056282;28;20025;-42
2021/07/06 11:46:16;;;;;;;12.32;4.10;;;32.50;51.70;;;;;;5056883;28;20045;-45
2021/07/06 11:48:44;;;;;;;3.85;3.22;;;32.60;51.20;;;;;;5056222;28;20152;-43
2021/07/06 11:51:16;;;;;;;5.43;3.28;;;32.60;51.60;;;;;;5056852;28;20068;-46
2021/07/06 11:53:53;;;;;;;5.68;3.25;;;32.60;50.60;;;;;;5056111;28;20317;-43
2021/07/06 11:56:24;;;;;;;6.38;3.50;;;32.60;50.80;;;;;;5056406;28;20029;-44
2021/07/06 11:58:49;;;;;;;3.83;3.10;;;32.60;51.00;;;;;;5056045;28;20043;-42
2021/07/06 12:01:16;;;;;;;7.47;3.40;;;32.50;51.80;;;;;;5056267;28;20096;-45
2021/07/06 12:03:42;;;;;;;4.40;3.35;;;32.60;52.30;;;;;;5055005;28;20075;-42
2021/07/06 12:06:16;;;;;;;3.40;2.90;;;32.70;52.70;;;;;;5056720;28;20037;-46
2021/07/06 12:08:43;;;;;;;5.03;3.63;;;32.80;51.90;;;;;;5056393;28;20025;-42
2021/07/06 12:11:13;;;;;;;8.30;3.47;;;33.00;51.50;;;;;;5056332;28;20025;-42
2021/07/06 12:13:42;;;;;;;4.22;3.13;;;33.10;51.40;;;;;;5056313;28;20104;-42
2021/07/06 12:16:33;;;;;;;3.88;3.10;;;33.30;51.60;;;;;;5056500;28;20021;-43
2021/07/06 12:19:09;;;;;;;5.00;3.60;;;33.50;51.00;;;;;;5055876;28;20033;-50
2021/07/06 12:21:41;;;;;;;3.95;3.10;;;33.70;50.20;;;;;;5056309;28;20047;-43
2021/07/06 12:24:09;;;;;;;4.93;3.22;;;33.70;50.10;;;;;;5056011;28;20036;-46
2021/07/06 12:26:48;;;;;;;4.95;3.03;;;33.70;49.90;;;;;;5055880;28;20037;-42
2021/07/06 12:29:24;;;;;;;6.47;3.50;;;33.50;49.60;;;;;;5056277;28;20107;-46
2021/07/06 12:31:50;;;;;;;4.25;3.05;;;33.40;49.50;;;;;;5055696;28;20052;-46
2021/07/06 12:34:17;;;;;;;4.60;3.22;;;33.20;49.50;;;;;;5055736;28;20040;-45
2021/07/06 12:36:57;;;;;;;13.20;3.60;;;33.00;49.60;;;;;;5055667;28;20120;-41
2021/07/06 12:39:34;;;;;;;4.63;3.00;;;32.80;49.80;;;;;;5055642;28;20382;-43
2021/07/06 12:42:00;;;;;;;8.45;3.30;;;32.70;50.00;;;;;;5055185;28;20045;-42
2021/07/06 12:44:31;;;;;;;4.10;3.70;;;32.40;50.40;;;;;;5055717;28;20044;-41
2021/07/06 12:47:19;;;;;;;6.50;4.13;;;32.20;51.00;;;;;;5055155;28;20040;-41